Metar z połowy godziny Komunikat METAR ze strony awiacja.imgw.pl Metar Mil EPDA METAR COR EPDA 261130Z 31009KT 270V010 9999 -SHRASN SCT021TCU BKN075 02/M01 Q1007 RMK 024 078 6/4 =